sensor_id;sensor_type;location;lat;lon;timestamp;temperature;humidity
21439;DHT22;10880;50.302;18.736;2023-03-01T00:01:14;3.00;52.20
21439;DHT22;10880;50.302;18.736;2023-03-01T00:03:42;3.00;51.80
21439;DHT22;10880;50.302;18.736;2023-03-01T00:06:08;2.90;52.10
21439;DHT22;10880;50.302;18.736;2023-03-01T00:08:36;2.90;51.90
21439;DHT22;10880;50.302;18.736;2023-03-01T00:11:22;1.70;51.50
21439;DHT22;10880;50.302;18.736;2023-03-01T00:13:50;2.90;52.60
21439;DHT22;10880;50.302;18.736;2023-03-01T00:16:23;2.90;52.10
21439;DHT22;10880;50.302;18.736;2023-03-01T00:18:50;2.90;52.50
21439;DHT22;10880;50.302;18.736;2023-03-01T00:21:17;2.80;52.20
21439;DHT22;10880;50.302;18.736;2023-03-01T00:23:43;2.80;52.20
21439;DHT22;10880;50.302;18.736;2023-03-01T00:26:12;2.80;52.00
21439;DHT22;10880;50.302;18.736;2023-03-01T00:28:41;2.70;52.50
21439;DHT22;10880;50.302;18.736;2023-03-01T00:31:10;2.70;52.20
21439;DHT22;10880;50.302;18.736;2023-03-01T00:33:38;2.70;52.60
21439;DHT22;10880;50.302;18.736;2023-03-01T00:36:05;2.70;52.50
21439;DHT22;10880;50.302;18.736;2023-03-01T00:38:36;2.60;52.70
21439;DHT22;10880;50.302;18.736;2023-03-01T00:41:08;2.60;52.70
21439;DHT22;10880;50.302;18.736;2023-03-01T00:43:35;2.60;52.40
21439;DHT22;10880;50.302;18.736;2023-03-01T00:46:09;2.60;52.90
21439;DHT22;10880;50.302;18.736;2023-03-01T00:48:36;2.60;53.00
21439;DHT22;10880;50.302;18.736;2023-03-01T00:51:07;2.60;52.70
21439;DHT22;10880;50.302;18.736;2023-03-01T00:53:34;2.50;52.90
21439;DHT22;10880;50.302;18.736;2023-03-01T00:56:01;2.50;52.90
21439;DHT22;10880;50.302;18.736;2023-03-01T00:58:29;2.50;52.50
21439;DHT22;10880;50.302;18.736;2023-03-01T01:00:55;2.50;52.50
21439;DHT22;10880;50.302;18.736;2023-03-01T01:03:23;2.50;52.50
21439;DHT22;10880;50.302;18.736;2023-03-01T01:05:51;2.50;52.80
21439;DHT22;10880;50.302;18.736;2023-03-01T01:08:19;2.50;52.60
21439;DHT22;10880;50.302;18.736;2023-03-01T01:10:47;2.40;53.00
21439;DHT22;10880;50.302;18.736;2023-03-01T01:13:13;2.40;53.00
21439;DHT22;10880;50.302;18.736;2023-03-01T01:15:40;2.40;52.70
21439;DHT22;10880;50.302;18.736;2023-03-01T01:18:07;2.40;52.50
21439;DHT22;10880;50.302;18.736;2023-03-01T01:20:35;2.40;52.70
21439;DHT22;10880;50.302;18.736;2023-03-01T01:23:05;2.40;53.10
21439;DHT22;10880;50.302;18.736;2023-03-01T01:25:35;2.30;52.90
21439;DHT22;10880;50.302;18.736;2023-03-01T01:28:02;2.30;53.10
21439;DHT22;10880;50.302;18.736;2023-03-01T01:30:29;2.30;52.90
21439;DHT22;10880;50.302;18.736;2023-03-01T01:32:55;2.30;52.80
21439;DHT22;10880;50.302;18.736;2023-03-01T01:35:22;2.30;52.60
21439;DHT22;10880;50.302;18.736;2023-03-01T01:37:48;2.30;52.80
21439;DHT22;10880;50.302;18.736;2023-03-01T01:40:15;2.30;52.80
21439;DHT22;10880;50.302;18.736;2023-03-01T01:42:41;2.30;52.90
21439;DHT22;10880;50.302;18.736;2023-03-01T01:48:00;2.30;53.50
21439;DHT22;10880;50.302;18.736;2023-03-01T01:50:27;2.20;53.30
21439;DHT22;10880;50.302;18.736;2023-03-01T01:52:54;2.20;52.70
21439;DHT22;10880;50.302;18.736;2023-03-01T01:55:24;2.20;52.80
21439;DHT22;10880;50.302;18.736;2023-03-01T01:57:57;2.20;53.30
21439;DHT22;10880;50.302;18.736;2023-03-01T02:00:27;2.20;53.40
21439;DHT22;10880;50.302;18.736;2023-03-01T02:03:14;2.10;53.30
21439;DHT22;10880;50.302;18.736;2023-03-01T02:05:59;2.10;52.90
21439;DHT22;10880;50.302;18.736;2023-03-01T02:08:29;2.10;53.00
21439;DHT22;10880;50.302;18.736;2023-03-01T02:10:57;2.10;53.40
21439;DHT22;10880;50.302;18.736;2023-03-01T02:13:26;2.10;53.10
21439;DHT22;10880;50.302;18.736;2023-03-01T02:15:54;2.00;53.30
21439;DHT22;10880;50.302;18.736;2023-03-01T02:18:23;2.00;53.20
21439;DHT22;10880;50.302;18.736;2023-03-01T02:20:55;2.00;53.50
21439;DHT22;10880;50.302;18.736;2023-03-01T02:23:24;2.00;53.60
21439;DHT22;10880;50.302;18.736;2023-03-01T02:26:20;2.00;53.30
21439;DHT22;10880;50.302;18.736;2023-03-01T02:28:50;2.00;53.70
21439;DHT22;10880;50.302;18.736;2023-03-01T02:31:19;1.90;53.30
21439;DHT22;10880;50.302;18.736;2023-03-01T02:34:05;1.90;53.60
21439;DHT22;10880;50.302;18.736;2023-03-01T02:36:48;1.90;53.50
21439;DHT22;10880;50.302;18.736;2023-03-01T02:39:22;1.90;53.80
21439;DHT22;10880;50.302;18.736;2023-03-01T02:41:52;1.90;53.80
21439;DHT22;10880;50.302;18.736;2023-03-01T02:44:20;1.90;53.80
21439;DHT22;10880;50.302;18.736;2023-03-01T02:46:50;1.90;53.80
21439;DHT22;10880;50.302;18.736;2023-03-01T02:49:27;1.90;53.90
21439;DHT22;10880;50.302;18.736;2023-03-01T02:55:14;1.90;53.80
21439;DHT22;10880;50.302;18.736;2023-03-01T02:57:46;1.90;53.80
21439;DHT22;10880;50.302;18.736;2023-03-01T03:00:23;1.90;53.70
21439;DHT22;10880;50.302;18.736;2023-03-01T03:02:52;1.90;53.60
21439;DHT22;10880;50.302;18.736;2023-03-01T03:05:27;1.90;53.30
21439;DHT22;10880;50.302;18.736;2023-03-01T03:07:59;1.90;53.70
21439;DHT22;10880;50.302;18.736;2023-03-01T03:10:33;1.90;53.50
21439;DHT22;10880;50.302;18.736;2023-03-01T03:13:05;1.90;53.60
21439;DHT22;10880;50.302;18.736;2023-03-01T03:15:38;1.90;53.70
21439;DHT22;10880;50.302;18.736;2023-03-01T03:18:08;1.90;53.60
21439;DHT22;10880;50.302;18.736;2023-03-01T03:20:36;1.90;53.60
21439;DHT22;10880;50.302;18.736;2023-03-01T03:23:03;1.90;53.30
21439;DHT22;10880;50.302;18.736;2023-03-01T03:25:30;1.90;53.10
21439;DHT22;10880;50.302;18.736;2023-03-01T03:27:57;1.90;53.30
21439;DHT22;10880;50.302;18.736;2023-03-01T03:30:29;1.90;53.70
21439;DHT22;10880;50.302;18.736;2023-03-01T03:32:57;1.90;53.70
21439;DHT22;10880;50.302;18.736;2023-03-01T03:35:30;1.80;54.20
21439;DHT22;10880;50.302;18.736;2023-03-01T03:37:58;1.80;53.50
21439;DHT22;10880;50.302;18.736;2023-03-01T03:40:39;1.80;53.50
21439;DHT22;10880;50.302;18.736;2023-03-01T03:43:08;1.80;53.50
21439;DHT22;10880;50.302;18.736;2023-03-01T03:45:37;1.80;53.60
21439;DHT22;10880;50.302;18.736;2023-03-01T03:48:06;1.80;53.40
21439;DHT22;10880;50.302;18.736;2023-03-01T03:50:33;1.80;53.70
21439;DHT22;10880;50.302;18.736;2023-03-01T03:53:09;1.70;53.10
21439;DHT22;10880;50.302;18.736;2023-03-01T03:55:38;1.70;53.70
21439;DHT22;10880;50.302;18.736;2023-03-01T03:58:08;1.70;53.20
21439;DHT22;10880;50.302;18.736;2023-03-01T04:00:37;1.70;53.80
21439;DHT22;10880;50.302;18.736;2023-03-01T04:03:04;1.70;53.80
21439;DHT22;10880;50.302;18.736;2023-03-01T04:05:31;1.60;53.80
21439;DHT22;10880;50.302;18.736;2023-03-01T04:07:58;1.70;53.90
21439;DHT22;10880;50.302;18.736;2023-03-01T04:10:34;1.70;53.80
21439;DHT22;10880;50.302;18.736;2023-03-01T04:13:03;1.70;54.00
21439;DHT22;10880;50.302;18.736;2023-03-01T04:15:31;1.70;53.90
21439;DHT22;10880;50.302;18.736;2023-03-01T04:17:59;1.70;54.00
21439;DHT22;10880;50.302;18.736;2023-03-01T04:20:28;1.70;54.00
21439;DHT22;10880;50.302;18.736;2023-03-01T04:23:03;1.70;54.00
21439;DHT22;10880;50.302;18.736;2023-03-01T04:25:48;1.70;53.80
21439;DHT22;10880;50.302;18.736;2023-03-01T04:28:31;1.70;53.40
21439;DHT22;10880;50.302;18.736;2023-03-01T04:31:05;1.70;54.00
21439;DHT22;10880;50.302;18.736;2023-03-01T04:33:46;1.70;53.80
21439;DHT22;10880;50.302;18.736;2023-03-01T04:36:15;1.70;53.30
21439;DHT22;10880;50.302;18.736;2023-03-01T04:38:42;1.70;53.90
21439;DHT22;10880;50.302;18.736;2023-03-01T04:41:10;1.70;53.60
21439;DHT22;10880;50.302;18.736;2023-03-01T04:43:40;1.70;53.80
21439;DHT22;10880;50.302;18.736;2023-03-01T04:46:08;1.70;53.30
21439;DHT22;10880;50.302;18.736;2023-03-01T04:48:39;1.70;53.80
21439;DHT22;10880;50.302;18.736;2023-03-01T04:51:09;1.70;53.70
21439;DHT22;10880;50.302;18.736;2023-03-01T04:53:40;1.70;53.80
21439;DHT22;10880;50.302;18.736;2023-03-01T04:56:06;1.70;53.70
21439;DHT22;10880;50.302;18.736;2023-03-01T04:58:33;1.70;53.20
21439;DHT22;10880;50.302;18.736;2023-03-01T05:00:59;1.70;53.30
21439;DHT22;10880;50.302;18.736;2023-03-01T05:03:26;1.60;53.30
21439;DHT22;10880;50.302;18.736;2023-03-01T05:05:58;1.60;53.50
21439;DHT22;10880;50.302;18.736;2023-03-01T05:08:25;1.60;53.50
21439;DHT22;10880;50.302;18.736;2023-03-01T05:10:53;1.60;53.50
21439;DHT22;10880;50.302;18.736;2023-03-01T05:13:21;1.50;53.30
21439;DHT22;10880;50.302;18.736;2023-03-01T05:15:58;1.50;53.30
21439;DHT22;10880;50.302;18.736;2023-03-01T05:18:27;1.50;53.80
21439;DHT22;10880;50.302;18.736;2023-03-01T05:20:55;1.50;53.80
21439;DHT22;10880;50.302;18.736;2023-03-01T05:23:25;1.50;53.80
21439;DHT22;10880;50.302;18.736;2023-03-01T05:25:51;1.40;53.30
21439;DHT22;10880;50.302;18.736;2023-03-01T05:28:19;1.40;53.60
21439;DHT22;10880;50.302;18.736;2023-03-01T05:30:46;1.40;53.70
21439;DHT22;10880;50.302;18.736;2023-03-01T05:33:15;1.40;53.60
21439;DHT22;10880;50.302;18.736;2023-03-01T05:35:45;1.40;54.10
21439;DHT22;10880;50.302;18.736;2023-03-01T05:38:12;1.40;54.10
21439;DHT22;10880;50.302;18.736;2023-03-01T05:40:43;1.40;54.00
21439;DHT22;10880;50.302;18.736;2023-03-01T05:43:14;1.40;54.00
21439;DHT22;10880;50.302;18.736;2023-03-01T05:45:41;1.40;54.00
21439;DHT22;10880;50.302;18.736;2023-03-01T05:48:09;1.40;53.90
21439;DHT22;10880;50.302;18.736;2023-03-01T05:50:38;1.40;54.00
21439;DHT22;10880;50.302;18.736;2023-03-01T05:53:13;1.40;54.00
21439;DHT22;10880;50.302;18.736;2023-03-01T05:55:43;1.30;54.10
21439;DHT22;10880;50.302;18.736;2023-03-01T05:58:15;1.30;53.70
21439;DHT22;10880;50.302;18.736;2023-03-01T06:00:43;1.30;54.00
21439;DHT22;10880;50.302;18.736;2023-03-01T06:03:12;1.30;54.10
21439;DHT22;10880;50.302;18.736;2023-03-01T06:05:40;1.30;53.90
21439;DHT22;10880;50.302;18.736;2023-03-01T06:08:10;1.30;54.30
21439;DHT22;10880;50.302;18.736;2023-03-01T06:10:37;1.30;54.30
21439;DHT22;10880;50.302;18.736;2023-03-01T06:13:04;1.40;54.00
21439;DHT22;10880;50.302;18.736;2023-03-01T06:15:30;1.40;54.30
21439;DHT22;10880;50.302;18.736;2023-03-01T06:17:57;1.40;54.00
21439;DHT22;10880;50.302;18.736;2023-03-01T06:20:27;1.50;54.20
21439;DHT22;10880;50.302;18.736;2023-03-01T06:22:54;1.50;54.60
21439;DHT22;10880;50.302;18.736;2023-03-01T06:25:27;1.50;54.10
21439;DHT22;10880;50.302;18.736;2023-03-01T06:27:54;1.60;54.30
21439;DHT22;10880;50.302;18.736;2023-03-01T06:30:22;1.60;54.40
21439;DHT22;10880;50.302;18.736;2023-03-01T06:32:49;1.60;54.80
21439;DHT22;10880;50.302;18.736;2023-03-01T06:35:18;1.60;54.40
21439;DHT22;10880;50.302;18.736;2023-03-01T06:37:47;1.70;54.90
21439;DHT22;10880;50.302;18.736;2023-03-01T06:40:14;1.70;54.90
21439;DHT22;10880;50.302;18.736;2023-03-01T06:42:43;1.80;55.00
21439;DHT22;10880;50.302;18.736;2023-03-01T06:45:14;1.80;55.10
21439;DHT22;10880;50.302;18.736;2023-03-01T06:47:40;1.90;54.70
21439;DHT22;10880;50.302;18.736;2023-03-01T06:50:08;1.90;54.90
21439;DHT22;10880;50.302;18.736;2023-03-01T06:55:04;2.00;54.90
21439;DHT22;10880;50.302;18.736;2023-03-01T06:57:31;2.20;55.10
21439;DHT22;10880;50.302;18.736;2023-03-01T06:59:58;2.20;55.00
21439;DHT22;10880;50.302;18.736;2023-03-01T07:02:24;2.20;55.20
21439;DHT22;10880;50.302;18.736;2023-03-01T07:04:51;2.30;55.00
21439;DHT22;10880;50.302;18.736;2023-03-01T07:07:18;2.10;55.20
21439;DHT22;10880;50.302;18.736;2023-03-01T07:09:45;2.50;55.20
21439;DHT22;10880;50.302;18.736;2023-03-01T07:14:39;2.60;55.20
21439;DHT22;10880;50.302;18.736;2023-03-01T07:17:06;2.60;55.20
21439;DHT22;10880;50.302;18.736;2023-03-01T07:19:32;2.70;55.60
21439;DHT22;10880;50.302;18.736;2023-03-01T07:21:59;2.90;55.30
21439;DHT22;10880;50.302;18.736;2023-03-01T07:24:26;2.90;55.30
21439;DHT22;10880;50.302;18.736;2023-03-01T07:26:52;3.00;55.40
21439;DHT22;10880;50.302;18.736;2023-03-01T07:29:19;3.00;55.50
21439;DHT22;10880;50.302;18.736;2023-03-01T07:31:46;3.10;55.30
21439;DHT22;10880;50.302;18.736;2023-03-01T07:34:13;3.20;55.30
21439;DHT22;10880;50.302;18.736;2023-03-01T07:36:39;3.30;55.20
21439;DHT22;10880;50.302;18.736;2023-03-01T07:39:10;3.30;55.50
21439;DHT22;10880;50.302;18.736;2023-03-01T07:41:37;3.50;55.70
21439;DHT22;10880;50.302;18.736;2023-03-01T07:44:03;3.50;55.80
21439;DHT22;10880;50.302;18.736;2023-03-01T07:46:30;3.50;56.00
21439;DHT22;10880;50.302;18.736;2023-03-01T07:48:57;3.60;55.80
21439;DHT22;10880;50.302;18.736;2023-03-01T07:51:24;3.60;55.30
21439;DHT22;10880;50.302;18.736;2023-03-01T07:53:51;3.70;55.60
21439;DHT22;10880;50.302;18.736;2023-03-01T07:56:17;3.80;55.80
21439;DHT22;10880;50.302;18.736;2023-03-01T07:58:45;3.80;55.90
21439;DHT22;10880;50.302;18.736;2023-03-01T08:01:14;4.00;56.10
21439;DHT22;10880;50.302;18.736;2023-03-01T08:03:41;4.00;56.50
21439;DHT22;10880;50.302;18.736;2023-03-01T08:06:14;4.20;56.00
21439;DHT22;10880;50.302;18.736;2023-03-01T08:08:43;4.30;56.10
21439;DHT22;10880;50.302;18.736;2023-03-01T08:11:14;4.30;56.50
21439;DHT22;10880;50.302;18.736;2023-03-01T08:13:43;4.40;56.40
21439;DHT22;10880;50.302;18.736;2023-03-01T08:16:14;4.50;56.10
21439;DHT22;10880;50.302;18.736;2023-03-01T08:18:42;4.60;56.40
21439;DHT22;10880;50.302;18.736;2023-03-01T08:21:14;4.70;55.90
21439;DHT22;10880;50.302;18.736;2023-03-01T08:23:42;4.90;55.80
21439;DHT22;10880;50.302;18.736;2023-03-01T08:26:17;4.90;56.30
21439;DHT22;10880;50.302;18.736;2023-03-01T08:28:45;5.00;56.30
21439;DHT22;10880;50.302;18.736;2023-03-01T08:33:51;5.20;55.80
21439;DHT22;10880;50.302;18.736;2023-03-01T08:36:22;5.40;55.60
21439;DHT22;10880;50.302;18.736;2023-03-01T08:38:49;5.30;55.90
21439;DHT22;10880;50.302;18.736;2023-03-01T08:41:16;5.40;55.70
21439;DHT22;10880;50.302;18.736;2023-03-01T08:43:43;5.50;55.40
21439;DHT22;10880;50.302;18.736;2023-03-01T08:46:10;5.70;55.40
21439;DHT22;10880;50.302;18.736;2023-03-01T08:48:37;5.80;55.40
21439;DHT22;10880;50.302;18.736;2023-03-01T08:51:16;5.80;56.20
21439;DHT22;10880;50.302;18.736;2023-03-01T08:53:43;5.90;55.20
21439;DHT22;10880;50.302;18.736;2023-03-01T08:56:10;6.00;54.70
21439;DHT22;10880;50.302;18.736;2023-03-01T08:58:38;6.00;55.20
21439;DHT22;10880;50.302;18.736;2023-03-01T09:01:10;6.10;55.10
21439;DHT22;10880;50.302;18.736;2023-03-01T09:03:37;6.30;54.80
21439;DHT22;10880;50.302;18.736;2023-03-01T09:06:05;6.30;54.70
21439;DHT22;10880;50.302;18.736;2023-03-01T09:08:37;6.50;54.50
21439;DHT22;10880;50.302;18.736;2023-03-01T09:11:06;6.50;55.00
21439;DHT22;10880;50.302;18.736;2023-03-01T09:13:33;6.60;54.80
21439;DHT22;10880;50.302;18.736;2023-03-01T09:16:04;6.60;54.30
21439;DHT22;10880;50.302;18.736;2023-03-01T09:18:33;6.80;54.00
21439;DHT22;10880;50.302;18.736;2023-03-01T09:21:14;6.70;54.30
21439;DHT22;10880;50.302;18.736;2023-03-01T09:23:45;6.80;54.30
21439;DHT22;10880;50.302;18.736;2023-03-01T09:26:18;6.90;54.20
21439;DHT22;10880;50.302;18.736;2023-03-01T09:28:46;6.90;54.00
21439;DHT22;10880;50.302;18.736;2023-03-01T09:31:14;7.00;53.60
21439;DHT22;10880;50.302;18.736;2023-03-01T09:33:42;7.00;53.90
21439;DHT22;10880;50.302;18.736;2023-03-01T09:36:18;7.10;53.30
21439;DHT22;10880;50.302;18.736;2023-03-01T09:38:45;7.10;53.80
21439;DHT22;10880;50.302;18.736;2023-03-01T09:44:00;7.20;53.00
21439;DHT22;10880;50.302;18.736;2023-03-01T09:46:35;7.20;53.50
21439;DHT22;10880;50.302;18.736;2023-03-01T09:49:06;7.20;53.30
21439;DHT22;10880;50.302;18.736;2023-03-01T09:51:34;7.30;54.00
21439;DHT22;10880;50.302;18.736;2023-03-01T09:54:05;7.30;53.70
21439;DHT22;10880;50.302;18.736;2023-03-01T09:56:41;7.30;53.00
21439;DHT22;10880;50.302;18.736;2023-03-01T09:59:44;7.40;52.60
21439;DHT22;10880;50.302;18.736;2023-03-01T10:02:30;7.40;52.50
21439;DHT22;10880;50.302;18.736;2023-03-01T10:10:43;7.50;52.90
21439;DHT22;10880;50.302;18.736;2023-03-01T10:13:15;7.50;52.70
21439;DHT22;10880;50.302;18.736;2023-03-01T10:15:49;7.50;52.70
21439;DHT22;10880;50.302;18.736;2023-03-01T10:18:19;7.50;52.60
21439;DHT22;10880;50.302;18.736;2023-03-01T10:20:52;7.60;52.20
21439;DHT22;10880;50.302;18.736;2023-03-01T10:23:19;7.60;52.00
21439;DHT22;10880;50.302;18.736;2023-03-01T10:31:02;7.70;52.20
21439;DHT22;10880;50.302;18.736;2023-03-01T10:33:32;7.80;52.00
21439;DHT22;10880;50.302;18.736;2023-03-01T10:36:02;7.80;52.10
21439;DHT22;10880;50.302;18.736;2023-03-01T10:38:31;7.90;51.80
21439;DHT22;10880;50.302;18.736;2023-03-01T10:41:00;8.00;51.70
21439;DHT22;10880;50.302;18.736;2023-03-01T10:49:12;8.10;51.70
21439;DHT22;10880;50.302;18.736;2023-03-01T10:51:44;8.10;52.00
21439;DHT22;10880;50.302;18.736;2023-03-01T10:56:51;8.20;51.40
21439;DHT22;10880;50.302;18.736;2023-03-01T10:59:33;8.20;51.90
21439;DHT22;10880;50.302;18.736;2023-03-01T11:04:36;8.30;52.20
21439;DHT22;10880;50.302;18.736;2023-03-01T11:07:02;8.30;51.20
21439;DHT22;10880;50.302;18.736;2023-03-01T11:09:33;8.30;51.20
21439;DHT22;10880;50.302;18.736;2023-03-01T11:12:14;8.30;51.50
21439;DHT22;10880;50.302;18.736;2023-03-01T11:14:56;8.30;51.40
21439;DHT22;10880;50.302;18.736;2023-03-01T11:17:28;8.40;52.20
21439;DHT22;10880;50.302;18.736;2023-03-01T11:20:16;8.40;50.60
21439;DHT22;10880;50.302;18.736;2023-03-01T11:22:49;8.40;51.20
21439;DHT22;10880;50.302;18.736;2023-03-01T11:25:19;8.40;51.10
21439;DHT22;10880;50.302;18.736;2023-03-01T11:27:47;8.40;51.20
21439;DHT22;10880;50.302;18.736;2023-03-01T11:30:31;8.40;51.00
21439;DHT22;10880;50.302;18.736;2023-03-01T11:35:37;8.40;50.70
21439;DHT22;10880;50.302;18.736;2023-03-01T11:48:57;8.50;51.10
21439;DHT22;10880;50.302;18.736;2023-03-01T11:51:47;8.60;50.70
21439;DHT22;10880;50.302;18.736;2023-03-01T11:54:42;8.60;50.80
21439;DHT22;10880;50.302;18.736;2023-03-01T12:00:21;8.60;50.70
21439;DHT22;10880;50.302;18.736;2023-03-01T12:03:21;8.70;50.60
21439;DHT22;10880;50.302;18.736;2023-03-01T12:06:35;8.70;50.60
21439;DHT22;10880;50.302;18.736;2023-03-01T12:08:52;8.70;50.50
21439;DHT22;10880;50.302;18.736;2023-03-01T12:19:48;8.80;50.80
21439;DHT22;10880;50.302;18.736;2023-03-01T12:22:34;8.80;50.40
21439;DHT22;10880;50.302;18.736;2023-03-01T12:25:30;8.80;50.40
21439;DHT22;10880;50.302;18.736;2023-03-01T12:45:21;9.00;50.30
21439;DHT22;10880;50.302;18.736;2023-03-01T12:48:55;9.00;50.20
21439;DHT22;10880;50.302;18.736;2023-03-01T12:50:50;9.10;50.30
21439;DHT22;10880;50.302;18.736;2023-03-01T12:54:05;9.10;50.00
21439;DHT22;10880;50.302;18.736;2023-03-01T12:56:31;9.20;50.00
21439;DHT22;10880;50.302;18.736;2023-03-01T13:02:38;9.30;49.90
21439;DHT22;10880;50.302;18.736;2023-03-01T13:06:23;9.30;49.90
21439;DHT22;10880;50.302;18.736;2023-03-01T13:08:20;9.30;49.80
21439;DHT22;10880;50.302;18.736;2023-03-01T13:11:04;9.40;49.80
21439;DHT22;10880;50.302;18.736;2023-03-01T13:13:31;9.40;49.20
21439;DHT22;10880;50.302;18.736;2023-03-01T13:16:40;9.40;49.20
21439;DHT22;10880;50.302;18.736;2023-03-01T13:21:34;9.50;49.20
21439;DHT22;10880;50.302;18.736;2023-03-01T13:24:01;9.50;49.40
21439;DHT22;10880;50.302;18.736;2023-03-01T13:26:28;9.50;49.50
21439;DHT22;10880;50.302;18.736;2023-03-01T13:28:56;9.50;49.20
21439;DHT22;10880;50.302;18.736;2023-03-01T13:33:54;9.50;49.10
21439;DHT22;10880;50.302;18.736;2023-03-01T13:38:59;9.60;48.40
21439;DHT22;10880;50.302;18.736;2023-03-01T13:44:25;9.60;48.80
21439;DHT22;10880;50.302;18.736;2023-03-01T13:57:44;9.60;48.70
21439;DHT22;10880;50.302;18.736;2023-03-01T14:03:08;9.70;48.40
21439;DHT22;10880;50.302;18.736;2023-03-01T14:05:37;9.70;48.10
21439;DHT22;10880;50.302;18.736;2023-03-01T14:10:41;9.80;48.30
21439;DHT22;10880;50.302;18.736;2023-03-01T14:13:23;9.80;48.40
21439;DHT22;10880;50.302;18.736;2023-03-01T14:19:16;9.80;48.30
21439;DHT22;10880;50.302;18.736;2023-03-01T14:21:44;9.90;48.20
21439;DHT22;10880;50.302;18.736;2023-03-01T14:24:23;9.80;48.60
21439;DHT22;10880;50.302;18.736;2023-03-01T14:26:50;9.90;48.20
21439;DHT22;10880;50.302;18.736;2023-03-01T14:29:43;9.90;47.80
21439;DHT22;10880;50.302;18.736;2023-03-01T14:32:23;9.80;48.00
21439;DHT22;10880;50.302;18.736;2023-03-01T14:34:51;9.90;48.20
21439;DHT22;10880;50.302;18.736;2023-03-01T14:37:34;9.90;47.70
21439;DHT22;10880;50.302;18.736;2023-03-01T14:40:04;9.80;48.00
21439;DHT22;10880;50.302;18.736;2023-03-01T14:42:34;9.90;48.00
21439;DHT22;10880;50.302;18.736;2023-03-01T14:45:03;9.90;47.80
21439;DHT22;10880;50.302;18.736;2023-03-01T14:47:34;9.90;47.60
21439;DHT22;10880;50.302;18.736;2023-03-01T14:50:03;9.90;47.60
21439;DHT22;10880;50.302;18.736;2023-03-01T14:52:36;9.90;46.80
21439;DHT22;10880;50.302;18.736;2023-03-01T14:55:59;9.90;47.40
21439;DHT22;10880;50.302;18.736;2023-03-01T14:58:13;9.90;46.50
21439;DHT22;10880;50.302;18.736;2023-03-01T15:00:51;9.90;47.00
21439;DHT22;10880;50.302;18.736;2023-03-01T15:03:37;9.90;47.70
21439;DHT22;10880;50.302;18.736;2023-03-01T15:06:06;10.00;46.80
21439;DHT22;10880;50.302;18.736;2023-03-01T15:08:34;10.00;46.70
21439;DHT22;10880;50.302;18.736;2023-03-01T15:13:35;10.00;45.90
21439;DHT22;10880;50.302;18.736;2023-03-01T15:16:11;9.90;45.90
21439;DHT22;10880;50.302;18.736;2023-03-01T15:18:47;9.90;45.60
21439;DHT22;10880;50.302;18.736;2023-03-01T15:21:21;10.00;46.10
21439;DHT22;10880;50.302;18.736;2023-03-01T15:23:51;10.00;46.10
21439;DHT22;10880;50.302;18.736;2023-03-01T15:28:53;10.00;45.30
21439;DHT22;10880;50.302;18.736;2023-03-01T15:31:31;9.90;45.20
21439;DHT22;10880;50.302;18.736;2023-03-01T15:34:32;9.90;45.10
21439;DHT22;10880;50.302;18.736;2023-03-01T15:37:01;9.90;45.70
21439;DHT22;10880;50.302;18.736;2023-03-01T15:39:38;9.90;45.60
21439;DHT22;10880;50.302;18.736;2023-03-01T15:42:10;9.90;44.90
21439;DHT22;10880;50.302;18.736;2023-03-01T15:44:40;9.90;45.60
21439;DHT22;10880;50.302;18.736;2023-03-01T15:47:27;9.90;45.00
21439;DHT22;10880;50.302;18.736;2023-03-01T15:49:55;9.90;45.00
21439;DHT22;10880;50.302;18.736;2023-03-01T15:52:32;9.90;45.00
21439;DHT22;10880;50.302;18.736;2023-03-01T15:55:06;9.90;45.00
21439;DHT22;10880;50.302;18.736;2023-03-01T15:57:40;9.80;46.00
21439;DHT22;10880;50.302;18.736;2023-03-01T16:00:10;9.80;45.00
21439;DHT22;10880;50.302;18.736;2023-03-01T16:02:38;9.80;45.60
21439;DHT22;10880;50.302;18.736;2023-03-01T16:05:05;9.80;45.50
21439;DHT22;10880;50.302;18.736;2023-03-01T16:07:32;9.80;45.60
21439;DHT22;10880;50.302;18.736;2023-03-01T16:09:58;9.70;45.10
21439;DHT22;10880;50.302;18.736;2023-03-01T16:12:25;9.70;45.20
21439;DHT22;10880;50.302;18.736;2023-03-01T16:14:51;9.70;45.40
21439;DHT22;10880;50.302;18.736;2023-03-01T16:17:19;9.60;45.40
21439;DHT22;10880;50.302;18.736;2023-03-01T16:22:12;9.50;45.10
21439;DHT22;10880;50.302;18.736;2023-03-01T16:24:39;9.50;45.10
21439;DHT22;10880;50.302;18.736;2023-03-01T16:27:06;9.40;45.20
21439;DHT22;10880;50.302;18.736;2023-03-01T16:29:33;9.40;45.20
21439;DHT22;10880;50.302;18.736;2023-03-01T16:32:02;9.30;45.10
21439;DHT22;10880;50.302;18.736;2023-03-01T16:34:29;9.20;45.20
21439;DHT22;10880;50.302;18.736;2023-03-01T16:36:55;9.20;45.10
21439;DHT22;10880;50.302;18.736;2023-03-01T16:39:22;9.10;45.10
21439;DHT22;10880;50.302;18.736;2023-03-01T16:41:48;9.10;45.30
21439;DHT22;10880;50.302;18.736;2023-03-01T16:44:15;9.00;45.30
21439;DHT22;10880;50.302;18.736;2023-03-01T16:46:42;8.90;45.20
21439;DHT22;10880;50.302;18.736;2023-03-01T16:49:09;8.90;45.50
21439;DHT22;10880;50.302;18.736;2023-03-01T16:51:36;8.80;45.20
21439;DHT22;10880;50.302;18.736;2023-03-01T16:54:03;8.70;45.50
21439;DHT22;10880;50.302;18.736;2023-03-01T16:56:30;8.60;45.70
21439;DHT22;10880;50.302;18.736;2023-03-01T16:58:58;8.60;45.60
21439;DHT22;10880;50.302;18.736;2023-03-01T17:01:25;8.50;45.40
21439;DHT22;10880;50.302;18.736;2023-03-01T17:03:52;8.40;46.40
21439;DHT22;10880;50.302;18.736;2023-03-01T17:06:20;9.00;45.70
21439;DHT22;10880;50.302;18.736;2023-03-01T17:08:48;8.30;45.90
21439;DHT22;10880;50.302;18.736;2023-03-01T17:11:17;8.20;45.60
21439;DHT22;10880;50.302;18.736;2023-03-01T17:13:45;8.20;45.90
21439;DHT22;10880;50.302;18.736;2023-03-01T17:16:17;8.10;46.00
21439;DHT22;10880;50.302;18.736;2023-03-01T17:18:43;8.00;46.00
21439;DHT22;10880;50.302;18.736;2023-03-01T17:21:11;8.00;45.80
21439;DHT22;10880;50.302;18.736;2023-03-01T17:23:39;7.90;46.10
21439;DHT22;10880;50.302;18.736;2023-03-01T17:26:06;7.80;46.10
21439;DHT22;10880;50.302;18.736;2023-03-01T17:28:34;7.80;45.80
21439;DHT22;10880;50.302;18.736;2023-03-01T17:31:04;7.60;45.90
21439;DHT22;10880;50.302;18.736;2023-03-01T17:33:31;7.60;46.40
21439;DHT22;10880;50.302;18.736;2023-03-01T17:35:58;7.50;46.20
21439;DHT22;10880;50.302;18.736;2023-03-01T17:38:25;7.50;46.50
21439;DHT22;10880;50.302;18.736;2023-03-01T17:40:51;7.40;46.20
21439;DHT22;10880;50.302;18.736;2023-03-01T17:43:18;7.30;46.00
21439;DHT22;10880;50.302;18.736;2023-03-01T17:45:45;7.30;46.40
21439;DHT22;10880;50.302;18.736;2023-03-01T17:48:15;7.20;46.60
21439;DHT22;10880;50.302;18.736;2023-03-01T17:50:41;7.20;46.60
21439;DHT22;10880;50.302;18.736;2023-03-01T17:53:08;7.10;46.30
21439;DHT22;10880;50.302;18.736;2023-03-01T17:55:36;7.10;46.90